Terminal Aerodrome Forecast
Issued by NWS Corpus Christi, TX

Home | Current Version | Previous Version | Text Only | Print | Product List | Glossary On
Versions: 1 2 3 4 5 6 7 8 9 10 11 12 13
451
FTUS44 KCRP 191742
TAFCRP
TAF
KCRP 191742Z 1918/2018 04020G26KT P6SM FEW250
     FM191900 05017KT P6SM FEW250
     FM192200 05008KT P6SM SCT250
     FM200700 02005KT P6SM SCT250=

USA.gov is the U.S. government's official web portal to all federal, state and local government web resources and services.